createdAt,value
2019-05-09T00:01:14.355Z,94323.80
2019-05-09T00:03:44.450Z,94325.22
2019-05-09T00:06:13.918Z,94321.64
2019-05-09T00:08:44.118Z,94324.50
2019-05-09T00:11:14.808Z,94320.76
2019-05-09T00:13:44.057Z,94322.81
2019-05-09T00:16:14.521Z,94326.14
2019-05-09T00:18:44.241Z,94326.39
2019-05-09T00:21:18.324Z,94323.94
2019-05-09T00:23:47.470Z,94314.94
2019-05-09T00:26:16.690Z,94320.17
2019-05-09T00:28:48.840Z,94324.98
2019-05-09T00:31:37.044Z,94326.36
2019-05-09T00:34:09.281Z,94320.20
2019-05-09T00:36:38.451Z,94320.45
2019-05-09T00:39:07.710Z,94318.42
2019-05-09T00:41:36.853Z,94322.30
2019-05-09T00:44:15.975Z,94318.26
2019-05-09T00:46:54.702Z,94324.43
2019-05-09T00:49:25.392Z,94324.25
2019-05-09T00:51:54.612Z,94319.91
2019-05-09T00:54:24.115Z,94318.35
2019-05-09T00:56:54.039Z,94318.27
2019-05-09T00:59:24.089Z,94308.63
2019-05-09T01:01:54.274Z,94309.33
2019-05-09T01:04:24.254Z,94311.50
2019-05-09T01:06:54.125Z,94306.06
2019-05-09T01:09:24.287Z,94314.56
2019-05-09T01:11:53.572Z,94306.16
2019-05-09T01:14:23.439Z,94302.13
2019-05-09T01:16:53.491Z,94299.39
2019-05-09T01:19:23.413Z,94292.61
2019-05-09T01:21:54.204Z,94291.22
2019-05-09T01:24:23.627Z,94288.81
2019-05-09T01:26:54.209Z,94281.25
2019-05-09T01:29:23.698Z,94283.58
2019-05-09T01:31:55.000Z,94284.63
2019-05-09T01:34:27.903Z,94284.48
2019-05-09T01:37:11.148Z,94280.88
2019-05-09T01:39:40.344Z,94291.05
2019-05-09T01:42:09.623Z,94297.06
2019-05-09T01:44:38.814Z,94291.44
2019-05-09T01:47:07.941Z,94294.06
2019-05-09T01:49:37.112Z,94291.47
2019-05-09T01:52:06.378Z,94290.94
2019-05-09T01:54:37.433Z,94286.24
2019-05-09T01:57:06.617Z,94286.77
2019-05-09T01:59:35.760Z,94288.45
2019-05-09T02:02:09.052Z,94291.20
2019-05-09T02:04:35.953Z,94290.03
2019-05-09T02:07:05.150Z,94287.95
2019-05-09T02:09:34.582Z,94282.08
2019-05-09T02:12:04.307Z,94286.19
2019-05-09T02:14:39.984Z,94288.58
2019-05-09T02:17:16.301Z,94284.42
2019-05-09T02:19:45.447Z,94280.19
2019-05-09T02:22:34.437Z,94274.41
2019-05-09T02:25:04.687Z,94283.38
2019-05-09T02:27:33.855Z,94279.25
2019-05-09T02:30:05.887Z,94272.99
2019-05-09T02:32:34.805Z,94273.84
2019-05-09T02:35:05.165Z,94274.30
2019-05-09T02:37:34.514Z,94269.86
2019-05-09T02:40:03.922Z,94271.55
2019-05-09T02:42:35.229Z,94270.72
2019-05-09T02:45:04.404Z,94272.94
2019-05-09T02:47:33.681Z,94271.55
2019-05-09T02:50:02.812Z,94264.07
2019-05-09T02:52:31.994Z,94262.63
2019-05-09T02:55:01.138Z,94261.63
2019-05-09T02:57:30.287Z,94261.77
2019-05-09T03:00:20.108Z,94261.91
2019-05-09T03:02:55.764Z,94257.84
2019-05-09T03:05:24.948Z,94253.07
2019-05-09T03:07:54.127Z,94260.88
2019-05-09T03:10:23.781Z,94257.89
2019-05-09T03:12:53.359Z,94253.16
2019-05-09T03:15:22.485Z,94256.67
2019-05-09T03:17:51.610Z,94249.25
2019-05-09T03:20:39.377Z,94249.11
2019-05-09T03:23:09.337Z,94249.16
2019-05-09T03:25:40.753Z,94251.96
2019-05-09T03:28:28.428Z,94246.61
2019-05-09T03:30:59.486Z,94260.16
2019-05-09T03:33:30.781Z,94257.47
2019-05-09T03:35:59.665Z,94265.28
2019-05-09T03:38:28.888Z,94260.16
2019-05-09T03:40:58.148Z,94257.61
2019-05-09T03:43:27.559Z,94254.42
2019-05-09T03:46:07.813Z,94246.61
2019-05-09T03:48:41.901Z,94247.42
2019-05-09T03:51:11.057Z,94255.76
2019-05-09T03:53:40.205Z,94253.30
2019-05-09T03:56:11.852Z,94248.00
2019-05-09T03:58:41.006Z,94246.54
2019-05-09T04:01:10.850Z,94254.48
2019-05-09T04:03:40.289Z,94256.42
2019-05-09T04:06:09.615Z,94258.11
2019-05-09T04:08:38.779Z,94252.41
2019-05-09T04:11:08.609Z,94252.92
2019-05-09T04:13:43.227Z,94248.33
2019-05-09T04:16:12.386Z,94248.33
2019-05-09T04:18:41.574Z,94257.23
2019-05-09T04:21:10.729Z,94250.73
2019-05-09T04:23:39.887Z,94253.57
2019-05-09T04:26:17.619Z,94257.22
2019-05-09T04:28:47.226Z,94256.00
2019-05-09T04:31:17.815Z,94250.80
2019-05-09T04:33:47.399Z,94250.94
2019-05-09T04:36:18.342Z,94250.46
2019-05-09T04:38:47.915Z,94250.59
2019-05-09T04:41:23.599Z,94250.59
2019-05-09T04:43:48.719Z,94247.60
2019-05-09T04:46:24.102Z,94244.22
2019-05-09T04:48:48.849Z,94248.86
2019-05-09T04:51:18.162Z,94249.30
2019-05-09T04:53:48.035Z,94259.32
2019-05-09T04:56:24.972Z,94255.63
2019-05-09T04:58:54.136Z,94254.98
2019-05-09T05:01:49.476Z,94254.20
2019-05-09T05:04:19.711Z,94250.69
2019-05-09T05:06:48.900Z,94254.37
2019-05-09T05:09:20.990Z,94253.08
2019-05-09T05:11:49.170Z,94257.23
2019-05-09T05:14:24.415Z,94257.45
2019-05-09T05:16:55.747Z,94261.66
2019-05-09T05:19:28.607Z,94265.63
2019-05-09T05:22:01.409Z,94262.29
2019-05-09T05:24:49.544Z,94262.45
2019-05-09T05:27:19.078Z,94263.42
2019-05-09T05:29:48.306Z,94258.35
2019-05-09T05:32:24.681Z,94254.73
2019-05-09T05:35:14.698Z,94262.35
2019-05-09T05:37:43.874Z,94259.28
2019-05-09T05:40:13.346Z,94264.34
2019-05-09T05:42:42.566Z,94265.27
2019-05-09T05:45:11.700Z,94264.32
2019-05-09T05:47:54.051Z,94266.41
2019-05-09T05:50:23.250Z,94265.44
2019-05-09T05:52:52.443Z,94267.63
2019-05-09T05:56:39.092Z,94265.27
2019-05-09T05:59:08.571Z,94265.80
2019-05-09T06:01:38.314Z,94271.50
2019-05-09T06:04:07.691Z,94273.76
2019-05-09T06:06:37.523Z,94278.30
2019-05-09T06:09:08.372Z,94271.55
2019-05-09T06:11:38.380Z,94271.34
2019-05-09T06:14:11.621Z,94275.34
2019-05-09T06:16:38.568Z,94272.91
2019-05-09T06:19:08.989Z,94266.78
2019-05-09T06:21:38.304Z,94266.72
2019-05-09T06:24:08.586Z,94264.63
2019-05-09T06:26:37.849Z,94259.97
2019-05-09T06:29:08.090Z,94265.33
2019-05-09T06:31:37.671Z,94262.00
2019-05-09T06:34:08.356Z,94270.51
2019-05-09T06:36:39.096Z,94256.39
2019-05-09T06:39:10.099Z,94256.23
2019-05-09T06:41:39.320Z,94267.77
2019-05-09T06:44:28.238Z,94266.59
2019-05-09T06:47:05.120Z,94265.52
2019-05-09T06:49:39.315Z,94268.73
2019-05-09T06:52:08.889Z,94258.13
2019-05-09T06:54:41.257Z,94263.68
2019-05-09T06:57:09.044Z,94265.98
2019-05-09T06:59:38.308Z,94262.28
2019-05-09T07:02:32.539Z,94260.22
2019-05-09T07:05:36.032Z,94260.44
2019-05-09T07:08:24.188Z,94259.73
2019-05-09T07:10:53.383Z,94259.86
2019-05-09T07:13:22.540Z,94256.70
2019-05-09T07:15:51.731Z,94256.70
2019-05-09T07:18:20.920Z,94251.05
2019-05-09T07:20:50.110Z,94246.42
2019-05-09T07:23:19.302Z,94244.67
2019-05-09T07:26:07.797Z,94240.20
2019-05-09T07:28:37.727Z,94231.17
2019-05-09T07:31:12.963Z,94232.58
2019-05-09T07:33:47.799Z,94229.47
2019-05-09T07:36:18.905Z,94229.52
2019-05-09T07:38:47.961Z,94223.95
2019-05-09T07:41:17.828Z,94221.58
2019-05-09T07:43:47.891Z,94223.72
2019-05-09T07:46:22.997Z,94222.72
2019-05-09T07:48:52.455Z,94223.96
2019-05-09T07:51:21.675Z,94221.86
2019-05-09T07:53:50.965Z,94222.92
2019-05-09T07:56:20.164Z,94219.95
2019-05-09T07:58:49.365Z,94218.32
2019-05-09T08:01:19.167Z,94214.42
2019-05-09T08:03:49.149Z,94218.80
2019-05-09T08:06:18.618Z,94212.82
2019-05-09T08:08:47.862Z,94218.08
2019-05-09T08:11:17.965Z,94221.82
2019-05-09T08:13:48.614Z,94215.92
2019-05-09T08:16:18.752Z,94215.33
2019-05-09T08:18:48.383Z,94214.20
2019-05-09T08:21:18.158Z,94215.09
2019-05-09T08:23:48.526Z,94215.09
2019-05-09T08:26:18.829Z,94209.57
2019-05-09T08:28:48.270Z,94209.96
2019-05-09T08:31:17.931Z,94219.47
2019-05-09T08:33:48.480Z,94209.07
2019-05-09T08:36:20.163Z,94214.95
2019-05-09T08:38:48.801Z,94210.49
2019-05-09T08:41:18.789Z,94203.56
2019-05-09T08:43:48.466Z,94208.91
2019-05-09T08:46:18.175Z,94198.84
2019-05-09T08:48:48.476Z,94208.16
2019-05-09T08:51:23.409Z,94210.77
2019-05-09T08:53:52.598Z,94212.62
2019-05-09T08:56:21.848Z,94206.71
2019-05-09T08:58:51.013Z,94192.16
2019-05-09T09:01:30.783Z,94197.62
2019-05-09T09:03:51.280Z,94184.09
2019-05-09T09:06:20.594Z,94192.42
2019-05-09T09:08:49.780Z,94188.19
2019-05-09T09:11:19.101Z,94187.91
2019-05-09T09:13:48.511Z,94181.75
2019-05-09T09:16:21.559Z,94188.98
2019-05-09T09:18:48.639Z,94176.89
2019-05-09T09:21:18.445Z,94187.63
2019-05-09T09:23:50.622Z,94186.41
2019-05-09T09:26:18.561Z,94191.05
2019-05-09T09:28:48.414Z,94192.81
2019-05-09T09:31:18.145Z,94187.00
2019-05-09T09:33:48.156Z,94186.19
2019-05-09T09:36:17.993Z,94183.17
2019-05-09T09:38:47.984Z,94175.00
2019-05-09T09:41:19.118Z,94181.10
2019-05-09T09:43:48.238Z,94181.65
2019-05-09T09:46:18.225Z,94180.22
2019-05-09T09:48:48.140Z,94164.45
2019-05-09T09:51:18.664Z,94168.51
2019-05-09T09:53:48.900Z,94167.20
2019-05-09T09:56:22.443Z,94164.58
2019-05-09T09:58:57.894Z,94157.11
2019-05-09T10:01:32.477Z,94158.47
2019-05-09T10:04:19.556Z,94156.58
2019-05-09T10:06:39.918Z,94153.66
2019-05-09T10:09:09.760Z,94144.21
2019-05-09T10:11:38.939Z,94145.58
2019-05-09T10:14:10.389Z,94148.00
2019-05-09T10:16:51.847Z,94144.61
2019-05-09T10:19:39.062Z,94141.62
2019-05-09T10:22:10.200Z,94141.62
2019-05-09T10:24:39.337Z,94144.95
2019-05-09T10:27:15.248Z,94146.17
2019-05-09T10:29:44.381Z,94147.21
2019-05-09T10:32:14.467Z,94148.89
2019-05-09T10:34:43.601Z,94149.91
2019-05-09T10:37:12.748Z,94159.72
2019-05-09T10:39:41.898Z,94165.41
2019-05-09T10:42:23.775Z,94165.92
2019-05-09T10:45:01.711Z,94174.02
2019-05-09T10:47:32.468Z,94175.98
2019-05-09T10:50:01.641Z,94181.48
2019-05-09T10:52:30.807Z,94190.89
2019-05-09T10:54:59.884Z,94188.83
2019-05-09T10:57:31.448Z,94203.33
2019-05-09T10:59:59.914Z,94202.84
2019-05-09T11:02:29.150Z,94210.80
2019-05-09T11:04:58.394Z,94218.91
2019-05-09T11:07:28.971Z,94231.66
2019-05-09T11:09:58.908Z,94237.61
2019-05-09T11:12:28.428Z,94250.70
2019-05-09T11:14:59.475Z,94248.41
2019-05-09T11:17:28.762Z,94254.30
2019-05-09T11:19:58.796Z,94264.04
2019-05-09T11:22:29.198Z,94288.38
2019-05-09T11:24:58.775Z,94286.14
2019-05-09T11:27:29.164Z,94283.14
2019-05-09T11:29:58.637Z,94306.09
2019-05-09T11:32:28.024Z,94281.55
2019-05-09T11:34:57.750Z,94278.25
2019-05-09T11:37:27.034Z,94266.55
2019-05-09T11:39:58.034Z,94246.80
2019-05-09T11:42:28.558Z,94239.72
2019-05-09T11:44:58.192Z,94233.59
2019-05-09T11:47:37.941Z,94230.34
2019-05-09T11:49:58.452Z,94222.64
2019-05-09T11:52:28.889Z,94231.91
2019-05-09T11:54:58.299Z,94221.04
2019-05-09T11:57:31.117Z,94215.84
2019-05-09T11:59:58.341Z,94219.28
2019-05-09T12:02:28.036Z,94204.09
2019-05-09T12:04:57.286Z,94204.89
2019-05-09T12:07:28.765Z,94197.09
2019-05-09T12:09:58.970Z,94188.76
2019-05-09T12:12:28.454Z,94198.97
2019-05-09T12:14:58.217Z,94187.02
2019-05-09T12:17:40.719Z,94186.39
2019-05-09T12:20:09.455Z,94188.22
2019-05-09T12:22:29.231Z,94184.74
2019-05-09T12:24:59.250Z,94185.82
2019-05-09T12:27:28.558Z,94183.05
2019-05-09T12:29:58.269Z,94181.45
2019-05-09T12:32:28.483Z,94171.31
2019-05-09T12:34:59.063Z,94172.98
2019-05-09T12:37:28.354Z,94177.15
2019-05-09T12:39:58.544Z,94166.66
2019-05-09T12:42:29.197Z,94168.84
2019-05-09T12:44:59.175Z,94164.92
2019-05-09T12:47:29.078Z,94158.92
2019-05-09T12:50:02.464Z,94168.09
2019-05-09T12:52:29.328Z,94154.47
2019-05-09T12:54:58.562Z,94163.97
2019-05-09T12:57:28.886Z,94137.30
2019-05-09T12:59:58.840Z,94155.09
2019-05-09T13:02:28.121Z,94148.76
2019-05-09T13:04:57.475Z,94156.09
2019-05-09T13:07:29.734Z,94142.45
2019-05-09T13:09:58.224Z,94157.20
2019-05-09T13:12:29.081Z,94151.20
2019-05-09T13:14:58.473Z,94151.91
2019-05-09T13:17:33.120Z,94144.34
2019-05-09T13:20:02.815Z,94145.80
2019-05-09T13:22:31.980Z,94139.42
2019-05-09T13:25:02.964Z,94137.89
2019-05-09T13:27:32.235Z,94143.86
2019-05-09T13:30:02.140Z,94143.53
2019-05-09T13:32:31.538Z,94136.06
2019-05-09T13:35:00.669Z,94133.69
2019-05-09T13:37:29.849Z,94130.20
2019-05-09T13:39:58.974Z,94131.98
2019-05-09T13:42:28.524Z,94137.09
2019-05-09T13:44:58.206Z,94139.05
2019-05-09T13:47:28.006Z,94129.05
2019-05-09T13:49:59.140Z,94128.20
2019-05-09T13:52:28.434Z,94134.03
2019-05-09T13:54:58.662Z,94128.38
2019-05-09T13:57:28.042Z,94124.15
2019-05-09T13:59:58.510Z,94120.33
2019-05-09T14:02:29.373Z,94129.43
2019-05-09T14:04:58.782Z,94125.63
2019-05-09T14:07:28.074Z,94145.56
2019-05-09T14:09:57.182Z,94138.67
2019-05-09T14:12:28.779Z,94141.98
2019-05-09T14:14:58.243Z,94136.60
2019-05-09T14:17:44.901Z,94138.05
2019-05-09T14:19:58.463Z,94146.57
2019-05-09T14:22:27.669Z,94138.13
2019-05-09T14:24:58.532Z,94149.75
2019-05-09T14:27:28.528Z,94150.68
2019-05-09T14:29:59.270Z,94152.14
2019-05-09T14:32:31.176Z,94153.33
2019-05-09T14:34:59.634Z,94144.95
2019-05-09T14:37:28.785Z,94147.82
2019-05-09T14:40:03.063Z,94150.72
2019-05-09T14:42:29.090Z,94159.84
2019-05-09T14:44:58.601Z,94158.50
2019-05-09T14:47:27.903Z,94179.13
2019-05-09T14:49:59.230Z,94178.89
2019-05-09T14:52:28.374Z,94181.17
2019-05-09T14:54:58.197Z,94177.62
2019-05-09T14:57:28.589Z,94189.34
2019-05-09T14:59:58.457Z,94194.03
2019-05-09T15:02:27.689Z,94195.33
2019-05-09T15:04:58.618Z,94187.77
2019-05-09T15:07:30.733Z,94194.13
2019-05-09T15:10:00.058Z,94189.46
2019-05-09T15:12:29.382Z,94185.52
2019-05-09T15:14:59.295Z,94194.71
2019-05-09T15:17:28.923Z,94171.58
2019-05-09T15:20:00.579Z,94185.48
2019-05-09T15:22:29.612Z,94174.37
2019-05-09T15:24:59.228Z,94182.97
2019-05-09T15:27:28.797Z,94187.55
2019-05-09T15:29:58.663Z,94176.50
2019-05-09T15:32:28.369Z,94176.41
2019-05-09T15:34:57.867Z,94175.64
2019-05-09T15:37:28.550Z,94182.53
2019-05-09T15:39:58.462Z,94176.66
2019-05-09T15:42:30.500Z,94171.91
2019-05-09T15:45:00.533Z,94175.82
2019-05-09T15:47:33.314Z,94176.96
2019-05-09T15:50:15.547Z,94185.70
2019-05-09T15:52:33.547Z,94181.07
2019-05-09T15:55:03.009Z,94191.36
2019-05-09T15:57:32.510Z,94188.13
2019-05-09T16:00:01.796Z,94184.44
2019-05-09T16:02:33.850Z,94177.94
2019-05-09T16:05:01.828Z,94183.34
2019-05-09T16:07:31.267Z,94182.72
2019-05-09T16:10:00.797Z,94174.03
2019-05-09T16:12:30.095Z,94187.80
2019-05-09T16:14:59.417Z,94177.36
2019-05-09T16:17:29.059Z,94182.65
2019-05-09T16:19:58.424Z,94191.23
2019-05-09T16:22:28.470Z,94192.47
2019-05-09T16:24:58.000Z,94194.00
2019-05-09T16:27:27.654Z,94197.84
2019-05-09T16:29:57.972Z,94193.91
2019-05-09T16:32:27.241Z,94194.66
2019-05-09T16:34:56.554Z,94199.47
2019-05-09T16:37:28.212Z,94199.39
2019-05-09T16:39:57.743Z,94208.55
2019-05-09T16:42:27.563Z,94214.65
2019-05-09T16:44:59.372Z,94210.41
2019-05-09T16:47:28.460Z,94222.02
2019-05-09T16:49:58.064Z,94222.87
2019-05-09T16:52:27.307Z,94230.81
2019-05-09T16:55:08.250Z,94233.57
2019-05-09T16:57:37.799Z,94241.41
2019-05-09T17:00:09.370Z,94248.41
2019-05-09T17:02:38.549Z,94258.00
2019-05-09T17:05:08.457Z,94262.62
2019-05-09T17:07:38.538Z,94261.52
2019-05-09T17:10:10.058Z,94246.34
2019-05-09T17:12:39.257Z,94255.70
2019-05-09T17:15:09.266Z,94257.60
2019-05-09T17:17:38.789Z,94267.71
2019-05-09T17:20:10.190Z,94265.99
2019-05-09T17:23:10.407Z,94271.48
2019-05-09T17:25:28.370Z,94275.86
2019-05-09T17:27:59.463Z,94279.65
2019-05-09T17:30:28.894Z,94279.25
2019-05-09T17:32:59.108Z,94281.01
2019-05-09T17:35:28.506Z,94298.14
2019-05-09T17:37:57.790Z,94292.80
2019-05-09T17:40:28.127Z,94297.45
2019-05-09T17:42:59.092Z,94318.83
2019-05-09T17:45:28.806Z,94310.00
2019-05-09T17:47:58.468Z,94310.14
2019-05-09T17:50:28.596Z,94319.38
2019-05-09T17:52:58.026Z,94326.64
2019-05-09T17:55:27.357Z,94332.22
2019-05-09T17:57:58.634Z,94332.98
2019-05-09T18:00:28.049Z,94337.07
2019-05-09T18:02:58.064Z,94349.00
2019-05-09T18:05:27.586Z,94357.70
2019-05-09T18:07:58.007Z,94354.90
2019-05-09T18:10:27.525Z,94361.45
2019-05-09T18:12:58.829Z,94367.83
2019-05-09T18:15:28.288Z,94384.51
2019-05-09T18:17:58.637Z,94376.00
2019-05-09T18:20:28.907Z,94385.26
2019-05-09T18:22:58.694Z,94379.56
2019-05-09T18:25:28.515Z,94372.24
2019-05-09T18:27:57.974Z,94384.42
2019-05-09T18:30:28.033Z,94389.36
2019-05-09T18:33:03.725Z,94395.91
2019-05-09T18:35:33.484Z,94387.10
2019-05-09T18:38:03.110Z,94397.14
2019-05-09T18:40:32.562Z,94396.33
2019-05-09T18:43:02.164Z,94396.06
2019-05-09T18:45:31.535Z,94398.13
2019-05-09T18:48:01.055Z,94392.25
2019-05-09T18:50:30.463Z,94405.25
2019-05-09T18:53:00.091Z,94408.17
2019-05-09T18:55:29.364Z,94415.75
2019-05-09T18:57:58.737Z,94425.61
2019-05-09T19:00:28.294Z,94436.91
2019-05-09T19:02:57.882Z,94437.58
2019-05-09T19:05:27.187Z,94435.89
2019-05-09T19:07:56.789Z,94429.41
2019-05-09T19:10:26.376Z,94441.13
2019-05-09T19:12:55.767Z,94448.31
2019-05-09T19:15:35.381Z,94452.20
2019-05-09T19:18:14.477Z,94460.23
2019-05-09T19:21:01.357Z,94452.55
2019-05-09T19:23:30.705Z,94460.44
2019-05-09T19:26:06.299Z,94464.62
2019-05-09T19:28:35.760Z,94469.08
2019-05-09T19:31:05.116Z,94476.87
2019-05-09T19:33:34.562Z,94470.18
2019-05-09T19:36:03.989Z,94477.70
2019-05-09T19:38:33.365Z,94488.83
2019-05-09T19:41:02.696Z,94494.77
2019-05-09T19:43:32.083Z,94495.39
2019-05-09T19:46:01.421Z,94504.94
2019-05-09T19:48:30.734Z,94512.30
2019-05-09T19:51:00.366Z,94518.14
2019-05-09T19:53:29.694Z,94522.83
2019-05-09T19:56:00.401Z,94520.58
2019-05-09T19:58:30.087Z,94516.16
2019-05-09T20:00:59.859Z,94524.94
2019-05-09T20:03:29.184Z,94531.17
2019-05-09T20:05:58.431Z,94526.48
2019-05-09T20:08:27.791Z,94537.89
2019-05-09T20:11:21.877Z,94542.47
2019-05-09T20:14:06.255Z,94540.67
2019-05-09T20:16:37.456Z,94547.72
2019-05-09T20:19:06.911Z,94545.25
2019-05-09T20:21:36.231Z,94544.45
2019-05-09T20:24:08.866Z,94542.44
2019-05-09T20:26:37.027Z,94552.46
2019-05-09T20:29:06.476Z,94549.41
2019-05-09T20:31:36.284Z,94554.58
2019-05-09T20:34:05.763Z,94577.05
2019-05-09T20:36:35.444Z,94587.00
2019-05-09T20:39:08.581Z,94581.32
2019-05-09T20:41:38.782Z,94583.01
2019-05-09T20:44:08.249Z,94577.14
2019-05-09T20:46:37.946Z,94584.00
2019-05-09T20:49:07.621Z,94581.06
2019-05-09T20:51:37.224Z,94582.77
2019-05-09T20:54:19.972Z,94588.77
2019-05-09T20:56:38.281Z,94593.01
2019-05-09T20:59:07.843Z,94590.70
2019-05-09T21:01:37.485Z,94586.18
2019-05-09T21:04:06.948Z,94597.41
2019-05-09T21:06:36.838Z,94594.41
2019-05-09T21:09:07.417Z,94597.64
2019-05-09T21:11:37.032Z,94604.34
2019-05-09T21:14:06.513Z,94603.39
2019-05-09T21:16:35.930Z,94614.09
2019-05-09T21:19:05.555Z,94618.02
2019-05-09T21:21:35.149Z,94631.86
2019-05-09T21:24:04.548Z,94624.03
2019-05-09T21:26:34.044Z,94623.02
2019-05-09T21:29:03.484Z,94625.22
2019-05-09T21:31:32.984Z,94623.26
2019-05-09T21:34:02.374Z,94626.97
2019-05-09T21:36:31.879Z,94619.48
2019-05-09T21:39:01.157Z,94628.97
2019-05-09T21:41:30.324Z,94633.58
2019-05-09T21:44:00.254Z,94627.60
2019-05-09T21:46:29.889Z,94630.28
2019-05-09T21:48:59.171Z,94629.03
2019-05-09T21:51:28.352Z,94627.28
2019-05-09T21:53:57.508Z,94635.95
2019-05-09T21:56:27.276Z,94630.16
2019-05-09T21:58:56.450Z,94642.78
2019-05-09T22:01:25.961Z,94631.70
2019-05-09T22:03:55.182Z,94642.02
2019-05-09T22:06:24.418Z,94634.91
2019-05-09T22:08:53.623Z,94635.63
2019-05-09T22:11:22.987Z,94642.70
2019-05-09T22:13:54.746Z,94637.28
2019-05-09T22:16:30.905Z,94636.84
2019-05-09T22:19:00.112Z,94648.03
2019-05-09T22:21:29.326Z,94647.78
2019-05-09T22:23:58.586Z,94654.80
2019-05-09T22:26:27.796Z,94655.38
2019-05-09T22:28:57.246Z,94657.60
2019-05-09T22:31:26.426Z,94660.80
2019-05-09T22:33:55.645Z,94662.93
2019-05-09T22:36:24.892Z,94663.03
2019-05-09T22:38:54.153Z,94673.09
2019-05-09T22:41:23.336Z,94672.63
2019-05-09T22:43:52.536Z,94676.83
2019-05-09T22:46:21.819Z,94684.12
2019-05-09T22:48:50.906Z,94681.70
2019-05-09T22:51:20.059Z,94676.56
2019-05-09T22:53:49.269Z,94687.56
2019-05-09T22:56:18.587Z,94689.55
2019-05-09T22:58:47.697Z,94687.94
2019-05-09T23:01:16.841Z,94693.70
2019-05-09T23:03:45.941Z,94690.69
2019-05-09T23:06:15.037Z,94692.52
2019-05-09T23:08:44.125Z,94691.52
2019-05-09T23:11:13.261Z,94694.66
2019-05-09T23:13:54.485Z,94691.52
2019-05-09T23:16:24.907Z,94694.36
2019-05-09T23:18:54.493Z,94696.94
2019-05-09T23:21:25.725Z,94698.30
2019-05-09T23:24:27.525Z,94705.02
2019-05-09T23:26:44.685Z,94705.61
2019-05-09T23:29:13.910Z,94706.14
2019-05-09T23:32:00.696Z,94691.24
2019-05-09T23:34:29.885Z,94709.58
2019-05-09T23:36:59.039Z,94712.05
2019-05-09T23:39:30.980Z,94711.50
2019-05-09T23:42:00.138Z,94715.81
2019-05-09T23:44:29.230Z,94715.08
2019-05-09T23:46:58.370Z,94725.64
2019-05-09T23:49:27.478Z,94714.48
2019-05-09T23:51:56.634Z,94716.45
2019-05-09T23:54:46.346Z,94715.42
2019-05-09T23:57:32.250Z,94713.78
